Accueil
METAR-TAF:

METAR-TAF

Aéroports :

Sion, Suisse

Aéroport de Sion

latitude: 46-13N, longitude: 007-20E, altitude: 482 m

Observation

Le bulletin a été fait il y a 15 minutes, à 19:20 UTC
Vent 1 kt de direction variable
Température 0°C
Humidité 93%
Pression 1018 hPa
Visibilité 10 km ou plus
Nuages fragmentés à une hauteur de 1800 ft

METAR: LSGS 121920Z AUTO VRB01KT 9999 BKN018 00/M01 Q1018

Heure: 20:35 (19:35 UTC)

Prévision

Le bulletin a été fait il y a 5 heures et 10 minutes, à 14:25 UTC
Prévision valable du 12 à 15 UTC au 12 à 24 UTC
Vent 3 kt de direction variable
Visibilité 10 km ou plus
Nuages épars à une hauteur de 1500 ft
Nuages fragmentés à une hauteur de 8000 ft
Evoluant progressivement
du 12 à 18 UTC au 12 à 21 UTC
Visibilité 10 km ou plus
pas de nuages en-dessous de 1500 mètres et pas de cumulonimbus.

TAF: LSGS 121425Z 1215/1224 VRB03KT 9999 SCT015 BKN080 BECMG 1218/1221 CAVOK

Observations et prévisions météorologiques de plus de 4000 aéroports (messages METAR et TAF).

Les stations disponibles sont représentées par des disques jaunes et rouges sur la carte.

Passer la souris dessus pour voir le nom de la station.

Cliquer dessus pour voir les observations et prévisions météorologiques.

Pour changer de carte: cliquez sur les boutons verts avec une croix noire pour zoomer, sur le bouton vert avec un tiret pour effectuer un zoom arrière, ou sur les flèches vertes pour les cartes adjacentes.


METAR-TAF: